createdAt,value
2018-07-26T00:00:04.621Z,27.90
2018-07-26T00:00:37.710Z,27.90
2018-07-26T00:01:10.789Z,27.90
2018-07-26T00:01:43.895Z,27.90
2018-07-26T00:02:17.007Z,27.90
2018-07-26T00:02:50.078Z,27.80
2018-07-26T00:03:36.007Z,27.80
2018-07-26T00:04:09.079Z,27.80
2018-07-26T00:04:42.140Z,27.80
2018-07-26T00:05:15.207Z,27.80
2018-07-26T00:06:31.665Z,27.80
2018-07-26T00:07:15.899Z,27.80
2018-07-26T00:07:49.031Z,27.80
2018-07-26T00:08:30.563Z,27.80
2018-07-26T00:09:03.651Z,27.80
2018-07-26T00:09:41.081Z,27.80
2018-07-26T00:10:14.460Z,27.80
2018-07-26T00:10:50.336Z,27.80
2018-07-26T00:11:27.133Z,27.70
2018-07-26T00:12:09.006Z,27.70
2018-07-26T00:12:42.088Z,27.70
2018-07-26T00:13:18.979Z,27.70
2018-07-26T00:13:53.016Z,27.70
2018-07-26T00:14:47.278Z,27.70
2018-07-26T00:16:41.166Z,27.70
2018-07-26T00:17:18.469Z,27.70
2018-07-26T00:17:53.834Z,27.70
2018-07-26T00:18:26.958Z,27.70
2018-07-26T00:19:00.048Z,27.70
2018-07-26T00:19:46.964Z,27.80
2018-07-26T00:20:20.001Z,27.80
2018-07-26T00:20:54.733Z,27.80
2018-07-26T00:21:27.802Z,27.80
2018-07-26T00:22:00.839Z,27.70
2018-07-26T00:22:37.706Z,27.70
2018-07-26T00:23:10.817Z,27.70
2018-07-26T00:23:44.878Z,27.70
2018-07-26T00:24:18.765Z,27.70
2018-07-26T00:24:54.324Z,27.70
2018-07-26T00:25:29.989Z,27.70
2018-07-26T00:26:09.141Z,27.70
2018-07-26T00:26:42.193Z,27.70
2018-07-26T00:27:15.276Z,27.70
2018-07-26T00:27:48.358Z,27.70
2018-07-26T00:28:21.434Z,27.80
2018-07-26T00:28:54.529Z,27.80
2018-07-26T00:29:28.346Z,27.80
2018-07-26T00:30:01.429Z,27.80
2018-07-26T00:30:34.460Z,27.80
2018-07-26T00:31:07.509Z,27.80
2018-07-26T00:31:41.496Z,27.80
2018-07-26T00:32:15.364Z,27.90
2018-07-26T00:32:48.414Z,27.90
2018-07-26T00:33:21.487Z,27.80
2018-07-26T00:33:54.515Z,27.80
2018-07-26T00:34:29.933Z,27.80
2018-07-26T00:35:02.974Z,27.80
2018-07-26T00:35:36.808Z,27.70
2018-07-26T00:36:11.865Z,27.80
2018-07-26T00:36:44.932Z,27.70
2018-07-26T00:37:18.017Z,27.70
2018-07-26T00:37:51.598Z,27.70
2018-07-26T00:38:27.870Z,27.70
2018-07-26T00:39:01.866Z,27.70
2018-07-26T00:39:35.696Z,27.70
2018-07-26T00:40:09.934Z,27.70
2018-07-26T00:40:43.200Z,27.70
2018-07-26T00:41:16.275Z,27.70
2018-07-26T00:41:50.969Z,27.70
2018-07-26T00:42:32.100Z,27.70
2018-07-26T00:43:07.066Z,27.70
2018-07-26T00:43:43.081Z,27.70
2018-07-26T00:44:19.172Z,27.70
2018-07-26T00:44:57.206Z,27.60
2018-07-26T00:45:40.290Z,27.60
2018-07-26T00:46:13.426Z,27.60
2018-07-26T00:46:46.481Z,27.60
2018-07-26T00:47:23.571Z,27.60
2018-07-26T00:47:59.386Z,27.60
2018-07-26T00:48:35.517Z,27.60
2018-07-26T00:49:23.296Z,27.50
2018-07-26T00:49:56.833Z,27.50
2018-07-26T00:50:34.926Z,27.50
2018-07-26T00:51:12.266Z,27.50
2018-07-26T00:51:50.467Z,27.50
2018-07-26T00:53:35.804Z,27.50
2018-07-26T00:55:34.048Z,27.50
2018-07-26T00:56:11.601Z,27.50
2018-07-26T00:56:45.161Z,27.50
2018-07-26T00:57:25.408Z,27.40
2018-07-26T00:59:07.839Z,27.50
2018-07-26T00:59:47.841Z,27.40
2018-07-26T01:00:30.913Z,27.40
2018-07-26T01:03:20.549Z,27.40
2018-07-26T01:04:37.806Z,27.40
2018-07-26T01:05:13.920Z,27.40
2018-07-26T01:07:19.423Z,27.40
2018-07-26T01:07:55.714Z,27.30
2018-07-26T01:09:38.160Z,27.30
2018-07-26T01:16:02.920Z,27.30
2018-07-26T01:21:41.740Z,27.20
2018-07-26T01:22:17.630Z,27.20
2018-07-26T01:23:54.998Z,27.10
2018-07-26T01:24:32.346Z,27.10
2018-07-26T01:25:55.127Z,27.00
2018-07-26T03:15:33.766Z,25.90
2018-07-26T03:17:41.853Z,25.90
2018-07-26T03:19:08.044Z,25.90
2018-07-26T03:19:43.145Z,25.90
2018-07-26T03:20:20.692Z,25.90
2018-07-26T03:20:56.732Z,25.80
2018-07-26T03:21:36.584Z,25.90
2018-07-26T03:26:04.505Z,25.90
2018-07-26T03:26:42.764Z,25.90
2018-07-26T03:27:55.131Z,25.90
2018-07-26T03:28:29.610Z,25.90
2018-07-26T03:29:05.389Z,25.90
2018-07-26T03:29:46.461Z,25.90
2018-07-26T03:30:23.672Z,25.90
2018-07-26T03:31:03.185Z,25.90
2018-07-26T03:31:40.861Z,25.90
2018-07-26T03:32:18.111Z,25.90
2018-07-26T03:33:34.666Z,26.00
2018-07-26T03:34:09.895Z,26.00
2018-07-26T03:34:44.067Z,26.00
2018-07-26T03:36:00.056Z,26.00
2018-07-26T03:36:34.534Z,26.00
2018-07-26T03:37:07.566Z,26.00
2018-07-26T03:37:41.763Z,26.00
2018-07-26T03:38:16.503Z,26.00
2018-07-26T03:38:50.742Z,26.00
2018-07-26T03:39:24.683Z,26.00
2018-07-26T03:39:58.099Z,26.00
2018-07-26T03:40:31.610Z,26.00
2018-07-26T03:41:04.942Z,26.00
2018-07-26T03:41:38.447Z,26.00
2018-07-26T03:42:11.200Z,26.00
2018-07-26T03:42:46.256Z,26.00
2018-07-26T03:43:22.025Z,26.00
2018-07-26T03:43:55.345Z,26.00
2018-07-26T03:44:29.011Z,26.00
2018-07-26T03:45:03.112Z,26.00
2018-07-26T03:45:37.756Z,26.00
2018-07-26T03:46:11.728Z,26.00
2018-07-26T03:46:45.398Z,26.00
2018-07-26T03:47:19.424Z,26.10
2018-07-26T03:47:54.480Z,26.10
2018-07-26T03:48:29.159Z,26.10
2018-07-26T03:49:02.848Z,26.00
2018-07-26T03:49:37.333Z,26.10
2018-07-26T03:50:16.948Z,26.00
2018-07-26T03:50:49.740Z,26.00
2018-07-26T03:51:24.626Z,26.00
2018-07-26T03:52:01.202Z,26.00
2018-07-26T04:18:24.835Z,25.80
2018-07-26T04:19:17.012Z,25.80
2018-07-26T04:19:52.079Z,25.80
2018-07-26T04:21:23.632Z,25.80
2018-07-26T04:22:04.695Z,25.80
2018-07-26T04:57:44.076Z,25.50
2018-07-26T05:45:45.633Z,26.80
2018-07-26T05:46:19.359Z,26.80
2018-07-26T05:46:53.156Z,26.80
2018-07-26T05:47:26.187Z,26.80
2018-07-26T05:47:59.229Z,26.90
2018-07-26T05:48:32.259Z,26.90
2018-07-26T05:49:06.052Z,27.00
2018-07-26T05:49:38.629Z,26.90
2018-07-26T05:50:11.226Z,26.90
2018-07-26T05:50:44.444Z,27.10
2018-07-26T05:51:16.927Z,27.00
2018-07-26T05:51:49.452Z,27.10
2018-07-26T05:52:22.755Z,27.20
2018-07-26T05:52:56.052Z,27.10
2018-07-26T05:53:28.601Z,27.10
2018-07-26T05:54:01.044Z,27.20
2018-07-26T05:54:34.770Z,27.30
2018-07-26T05:55:08.579Z,27.30
2018-07-26T05:55:41.612Z,27.30
2018-07-26T05:56:14.636Z,27.30
2018-07-26T05:56:47.668Z,27.30
2018-07-26T05:57:20.704Z,27.40
2018-07-26T05:57:53.728Z,27.50
2018-07-26T05:58:27.515Z,27.50
2018-07-26T05:59:01.317Z,27.50
2018-07-26T05:59:35.123Z,27.60
2018-07-26T06:00:07.725Z,27.60
2018-07-26T06:00:40.235Z,27.60
2018-07-26T06:01:12.756Z,27.70
2018-07-26T06:01:45.255Z,27.70
2018-07-26T06:02:17.766Z,27.70
2018-07-26T06:02:50.284Z,27.80
2018-07-26T06:03:22.776Z,27.80
2018-07-26T06:03:55.724Z,27.80
2018-07-26T06:04:29.551Z,27.90
2018-07-26T06:05:02.604Z,27.90
2018-07-26T06:05:35.375Z,27.90
2018-07-26T06:06:07.883Z,28.00
2018-07-26T06:06:41.169Z,28.00
2018-07-26T06:07:14.456Z,28.00
2018-07-26T06:07:47.723Z,28.00
2018-07-26T06:08:20.223Z,28.00
2018-07-26T06:08:52.738Z,28.10
2018-07-26T06:09:25.230Z,28.10
2018-07-26T06:09:57.759Z,28.10
2018-07-26T06:10:30.294Z,28.20
2018-07-26T06:11:02.804Z,28.20
2018-07-26T06:11:36.071Z,28.30
2018-07-26T06:12:08.587Z,28.30
2018-07-26T06:12:41.096Z,28.30
2018-07-26T06:13:14.047Z,28.30
2018-07-26T06:13:46.630Z,28.40
2018-07-26T06:14:19.143Z,28.40
2018-07-26T06:14:51.634Z,28.40
2018-07-26T06:15:24.640Z,28.40
2018-07-26T06:15:57.216Z,28.50
2018-07-26T06:16:30.484Z,28.50
2018-07-26T06:17:03.782Z,28.50
2018-07-26T06:17:37.063Z,28.60
2018-07-26T06:18:09.645Z,28.60
2018-07-26T06:18:42.092Z,28.60
2018-07-26T06:19:15.356Z,28.70
2018-07-26T06:19:49.065Z,28.70
2018-07-26T06:20:22.875Z,28.70
2018-07-26T06:20:56.668Z,28.80
2018-07-26T06:21:29.715Z,28.70
2018-07-26T06:22:03.513Z,28.80
2018-07-26T06:22:37.328Z,28.80
2018-07-26T06:23:09.915Z,28.80
2018-07-26T06:23:42.427Z,28.80
2018-07-26T06:24:15.691Z,28.90
2018-07-26T06:24:48.968Z,28.90
2018-07-26T06:25:22.704Z,29.00
2018-07-26T06:25:55.746Z,29.00
2018-07-26T06:26:28.783Z,29.00
2018-07-26T06:27:01.829Z,28.70
2018-07-26T06:27:34.868Z,29.00
2018-07-26T06:28:07.938Z,29.00
2018-07-26T06:28:40.514Z,29.10
2018-07-26T06:29:14.245Z,29.10
2018-07-26T06:29:47.265Z,29.10
2018-07-26T06:30:20.296Z,29.10
2018-07-26T06:30:53.340Z,29.10
2018-07-26T06:31:27.144Z,29.20
2018-07-26T06:32:00.174Z,29.20
2018-07-26T06:32:33.225Z,29.30
2018-07-26T06:33:06.276Z,29.30
2018-07-26T06:33:39.468Z,29.30
2018-07-26T06:34:12.336Z,29.40
2018-07-26T06:34:45.364Z,29.40
2018-07-26T06:35:18.390Z,29.40
2018-07-26T06:35:51.424Z,29.40
2018-07-26T06:36:24.456Z,29.50
2018-07-26T06:36:57.507Z,29.50
2018-07-26T06:37:30.536Z,29.50
2018-07-26T06:38:03.604Z,29.60
2018-07-26T06:38:36.636Z,29.60
2018-07-26T06:39:09.669Z,29.60
2018-07-26T06:39:42.938Z,29.70
2018-07-26T06:40:15.530Z,29.70
2018-07-26T06:40:48.045Z,29.70
2018-07-26T06:41:20.570Z,29.80
2018-07-26T06:41:53.084Z,29.80
2018-07-26T06:42:26.376Z,29.80
2018-07-26T06:42:59.645Z,29.90
2018-07-26T06:43:32.927Z,29.90
2018-07-26T06:44:06.199Z,29.90
2018-07-26T06:44:38.730Z,29.90
2018-07-26T06:45:11.223Z,29.90
2018-07-26T06:45:43.738Z,30.00
2018-07-26T06:46:16.260Z,30.00
2018-07-26T06:46:48.751Z,30.00
2018-07-26T06:47:21.264Z,30.00
2018-07-26T06:47:54.324Z,30.00
2018-07-26T06:48:26.923Z,30.10
2018-07-26T06:49:00.201Z,30.10
2018-07-26T06:49:33.483Z,30.20
2018-07-26T06:50:05.978Z,30.20
2018-07-26T06:50:38.504Z,30.20
2018-07-26T06:51:12.220Z,30.20
2018-07-26T06:51:46.055Z,30.20
2018-07-26T06:52:19.103Z,30.20
2018-07-26T06:52:52.146Z,30.30
2018-07-26T06:53:24.736Z,30.40
2018-07-26T06:53:57.235Z,30.40
2018-07-26T06:54:29.759Z,30.40
2018-07-26T06:55:02.265Z,30.40
2018-07-26T06:55:34.787Z,30.40
2018-07-26T06:56:07.299Z,30.50
2018-07-26T06:56:39.799Z,30.50
2018-07-26T06:57:12.315Z,30.50
2018-07-26T06:57:44.841Z,30.60
2018-07-26T06:58:17.346Z,30.60
2018-07-26T06:58:49.868Z,30.60
2018-07-26T06:59:22.351Z,30.70
2018-07-26T06:59:54.860Z,30.70
2018-07-26T07:00:27.866Z,30.70
2018-07-26T07:01:00.876Z,30.70
2018-07-26T07:01:33.459Z,30.70
2018-07-26T07:02:06.751Z,30.80
2018-07-26T07:02:39.279Z,30.80
2018-07-26T07:03:12.575Z,30.90
2018-07-26T07:03:45.867Z,30.90
2018-07-26T07:04:19.155Z,31.00
2018-07-26T07:04:52.432Z,31.00
2018-07-26T07:05:25.691Z,31.00
2018-07-26T07:05:58.216Z,31.00
2018-07-26T07:06:30.711Z,31.00
2018-07-26T07:07:03.216Z,31.00
2018-07-26T07:07:35.978Z,31.10
2018-07-26T07:08:08.508Z,31.00
2018-07-26T07:08:41.039Z,31.10
2018-07-26T07:09:13.547Z,31.10
2018-07-26T07:09:46.821Z,31.20
2018-07-26T07:10:19.340Z,31.20
2018-07-26T07:10:51.852Z,31.20
2018-07-26T07:11:25.135Z,31.30
2018-07-26T07:11:58.399Z,31.30
2018-07-26T07:12:30.915Z,31.20
2018-07-26T07:13:03.446Z,31.30
2018-07-26T07:13:36.400Z,31.30
2018-07-26T07:14:09.453Z,31.40
2018-07-26T07:14:42.480Z,31.40
2018-07-26T07:15:16.304Z,31.40
2018-07-26T07:15:49.339Z,31.40
2018-07-26T07:16:21.923Z,31.50
2018-07-26T07:16:54.427Z,31.50
2018-07-26T07:17:26.960Z,31.60
2018-07-26T07:17:59.478Z,31.60
2018-07-26T07:18:32.792Z,31.60
2018-07-26T07:19:05.284Z,31.60
2018-07-26T07:19:37.786Z,31.60
2018-07-26T07:20:11.087Z,31.70
2018-07-26T07:20:43.600Z,31.70
2018-07-26T07:21:16.564Z,31.70
2018-07-26T07:21:49.615Z,31.80
2018-07-26T07:22:22.644Z,31.90
2018-07-26T07:22:55.710Z,31.90
2018-07-26T07:23:28.731Z,31.90
2018-07-26T07:24:01.771Z,31.90
2018-07-26T07:24:34.344Z,31.90
2018-07-26T07:25:06.864Z,32.00
2018-07-26T07:25:39.395Z,32.10
2018-07-26T07:26:11.924Z,32.10
2018-07-26T07:26:45.197Z,32.10
2018-07-26T07:27:17.702Z,32.10
2018-07-26T07:27:50.278Z,32.20
2018-07-26T07:28:23.494Z,32.30
2018-07-26T07:28:57.224Z,32.30
2018-07-26T07:29:31.035Z,32.30
2018-07-26T07:30:04.082Z,32.30
2018-07-26T07:30:37.881Z,32.30
2018-07-26T07:31:11.683Z,32.30
2018-07-26T07:31:44.727Z,32.30
2018-07-26T07:32:19.293Z,32.40
2018-07-26T07:32:52.352Z,32.40
2018-07-26T07:33:25.409Z,32.50
2018-07-26T07:33:59.217Z,32.50
2018-07-26T07:34:32.254Z,32.50
2018-07-26T07:35:05.283Z,32.60
2018-07-26T07:35:38.312Z,32.60
2018-07-26T07:36:12.134Z,32.60
2018-07-26T07:36:45.180Z,32.70
2018-07-26T07:37:18.241Z,32.70
2018-07-26T07:37:51.303Z,32.80
2018-07-26T07:38:24.360Z,32.70
2018-07-26T07:38:57.403Z,32.80
2018-07-26T07:39:30.439Z,32.80
2018-07-26T07:40:03.513Z,32.80
2018-07-26T07:40:36.546Z,32.80
2018-07-26T07:41:09.601Z,32.90
2018-07-26T07:41:43.410Z,33.00
2018-07-26T07:42:16.432Z,32.90
2018-07-26T07:42:49.488Z,33.00
2018-07-26T07:43:22.541Z,33.10
2018-07-26T07:43:55.597Z,33.00
2018-07-26T07:44:28.636Z,33.10
2018-07-26T07:45:01.677Z,33.10
2018-07-26T07:45:34.716Z,33.20
2018-07-26T07:46:07.786Z,33.20
2018-07-26T07:46:41.633Z,33.20
2018-07-26T07:47:14.697Z,33.20
2018-07-26T07:47:47.682Z,33.30
2018-07-26T07:48:20.739Z,33.30
2018-07-26T07:48:53.768Z,33.30
2018-07-26T07:49:27.605Z,33.40
2018-07-26T07:50:01.401Z,33.40
2018-07-26T07:50:35.200Z,33.40
2018-07-26T07:51:08.242Z,33.40
2018-07-26T07:51:42.035Z,33.50
2018-07-26T07:52:15.059Z,33.50
2018-07-26T07:52:48.147Z,33.50
2018-07-26T07:53:21.940Z,33.50
2018-07-26T07:53:54.980Z,33.50
2018-07-26T07:54:28.031Z,33.50
2018-07-26T07:55:01.089Z,33.50
2018-07-26T07:55:34.892Z,33.50
2018-07-26T07:56:08.688Z,33.50
2018-07-26T07:56:41.732Z,33.50
2018-07-26T07:57:14.772Z,33.50
2018-07-26T07:57:47.791Z,33.50
2018-07-26T07:58:21.612Z,33.70
2018-07-26T07:58:54.663Z,33.60
2018-07-26T07:59:28.499Z,33.70
2018-07-26T08:00:01.504Z,33.60
2018-07-26T08:00:34.547Z,33.70
2018-07-26T08:01:07.581Z,33.80
2018-07-26T08:01:41.379Z,33.90
2018-07-26T08:02:15.629Z,33.90
2018-07-26T08:02:48.655Z,33.90
2018-07-26T08:03:21.720Z,33.90
2018-07-26T08:03:55.523Z,34.10
2018-07-26T08:04:29.319Z,34.10
2018-07-26T08:05:02.396Z,34.00
2018-07-26T08:05:36.177Z,34.10
2018-07-26T08:06:09.988Z,34.10
2018-07-26T08:06:43.065Z,34.10
2018-07-26T08:07:16.068Z,34.20
2018-07-26T08:07:49.099Z,34.20
2018-07-26T08:08:22.907Z,34.30
2018-07-26T08:08:55.957Z,34.30
2018-07-26T08:09:29.749Z,34.30
2018-07-26T08:10:03.547Z,34.30
2018-07-26T08:10:37.352Z,34.30
2018-07-26T08:11:10.426Z,34.20
2018-07-26T08:11:43.432Z,34.30
2018-07-26T08:12:16.471Z,34.20
2018-07-26T08:12:50.299Z,34.30
2018-07-26T08:13:23.359Z,34.30
2018-07-26T08:13:56.422Z,34.30
2018-07-26T08:14:30.248Z,34.30
2018-07-26T08:15:03.295Z,34.30
2018-07-26T08:15:36.347Z,34.30
2018-07-26T08:16:09.383Z,34.30
2018-07-26T08:16:42.418Z,34.30
2018-07-26T08:17:15.453Z,34.30
2018-07-26T08:17:48.499Z,34.40
2018-07-26T08:18:21.569Z,34.30
2018-07-26T08:18:54.639Z,34.40
2018-07-26T08:19:27.696Z,34.40
2018-07-26T08:20:00.740Z,34.40
2018-07-26T08:20:34.546Z,34.40
2018-07-26T08:21:07.584Z,34.40
2018-07-26T08:21:40.648Z,34.50
2018-07-26T08:22:13.723Z,34.50
2018-07-26T08:22:46.767Z,34.60
2018-07-26T08:23:19.811Z,34.60
2018-07-26T08:23:53.598Z,34.70
2018-07-26T08:24:27.400Z,34.70
2018-07-26T08:25:01.188Z,34.80
2018-07-26T08:25:34.991Z,34.80
2018-07-26T08:26:08.040Z,34.80
2018-07-26T08:26:41.056Z,34.90
2018-07-26T08:27:14.120Z,34.90
2018-07-26T08:27:47.167Z,34.90
2018-07-26T08:28:20.226Z,34.90
2018-07-26T08:28:53.274Z,35.00
2018-07-26T08:29:26.382Z,35.00
2018-07-26T08:30:00.119Z,35.00
2018-07-26T08:30:33.148Z,35.00
2018-07-26T08:31:06.212Z,35.00
2018-07-26T08:31:39.265Z,35.00
2018-07-26T08:32:12.321Z,35.10
2018-07-26T08:32:45.358Z,35.10
2018-07-26T08:33:18.394Z,35.10
2018-07-26T08:33:51.467Z,35.10
2018-07-26T08:34:24.521Z,35.10
2018-07-26T08:34:57.598Z,35.10
2018-07-26T08:35:31.377Z,35.10
2018-07-26T08:36:04.417Z,35.10
2018-07-26T08:36:37.444Z,35.20
2018-07-26T08:37:10.496Z,35.20
2018-07-26T08:37:44.288Z,35.30
2018-07-26T08:38:18.090Z,35.30
2018-07-26T08:38:51.155Z,35.30
2018-07-26T08:39:24.958Z,35.30
2018-07-26T08:39:57.991Z,35.30
2018-07-26T08:40:31.065Z,35.30
2018-07-26T08:41:04.128Z,35.30
2018-07-26T08:41:37.128Z,35.30
2018-07-26T08:42:10.184Z,35.40
2018-07-26T08:42:43.214Z,35.40
2018-07-26T08:43:16.244Z,35.40
2018-07-26T08:43:49.289Z,35.50
2018-07-26T08:44:22.360Z,35.60
2018-07-26T08:44:55.412Z,35.60
2018-07-26T08:45:28.441Z,35.70
2018-07-26T08:46:01.500Z,35.70
2018-07-26T08:46:34.539Z,35.70
2018-07-26T08:47:07.585Z,35.70
2018-07-26T08:47:41.403Z,35.90
2018-07-26T08:48:14.500Z,35.80
2018-07-26T08:48:48.287Z,35.90
2018-07-26T08:49:21.326Z,35.90
2018-07-26T08:49:55.109Z,36.00
2018-07-26T08:50:28.908Z,36.00
2018-07-26T08:51:02.723Z,36.00
2018-07-26T08:51:35.791Z,36.00
2018-07-26T08:52:08.847Z,36.10
2018-07-26T08:52:41.866Z,36.20
2018-07-26T08:53:14.934Z,36.20
2018-07-26T08:53:48.010Z,36.20
2018-07-26T08:54:21.870Z,36.30
2018-07-26T08:54:54.847Z,36.20
2018-07-26T08:55:28.698Z,36.30
2018-07-26T08:56:02.529Z,36.30
2018-07-26T08:56:36.326Z,36.20
2018-07-26T08:57:10.124Z,36.20
2018-07-26T08:57:43.167Z,36.30
2018-07-26T08:58:16.214Z,36.20
2018-07-26T08:58:49.258Z,36.20
2018-07-26T08:59:22.304Z,36.20
2018-07-26T08:59:56.111Z,36.20
2018-07-26T09:00:29.900Z,36.20
2018-07-26T09:01:03.742Z,36.20
2018-07-26T09:01:37.557Z,35.90
2018-07-26T09:02:10.596Z,36.20
2018-07-26T09:02:43.726Z,36.30
2018-07-26T09:03:16.725Z,36.30
2018-07-26T09:03:50.525Z,36.30
2018-07-26T09:04:23.597Z,36.20
2018-07-26T09:04:56.634Z,36.30
2018-07-26T09:05:29.668Z,36.40
2018-07-26T09:06:02.713Z,36.40
2018-07-26T09:06:36.536Z,36.50
2018-07-26T09:07:09.588Z,36.50
2018-07-26T09:07:43.404Z,36.70
2018-07-26T09:08:16.441Z,36.60
2018-07-26T09:08:50.248Z,36.60
2018-07-26T09:09:24.059Z,36.60
2018-07-26T09:09:57.130Z,36.60
2018-07-26T09:10:30.137Z,36.60
2018-07-26T09:11:03.266Z,36.60
2018-07-26T09:11:36.256Z,36.60
2018-07-26T09:12:10.031Z,36.70
2018-07-26T09:12:43.085Z,36.70
2018-07-26T09:13:16.917Z,36.80
2018-07-26T09:13:50.008Z,36.80
2018-07-26T09:14:23.021Z,36.80
2018-07-26T09:14:56.049Z,36.80
2018-07-26T09:15:29.085Z,36.90
2018-07-26T09:16:02.892Z,37.00
2018-07-26T09:16:35.929Z,37.00
2018-07-26T09:17:08.991Z,37.10
2018-07-26T09:17:42.004Z,37.10
2018-07-26T09:18:15.041Z,37.10
2018-07-26T09:18:48.105Z,37.20
2018-07-26T09:19:21.139Z,37.20
2018-07-26T09:19:54.180Z,37.20
2018-07-26T09:20:27.220Z,37.20
2018-07-26T09:21:00.313Z,37.30
2018-07-26T09:21:33.352Z,37.30
2018-07-26T09:22:06.396Z,37.30
2018-07-26T09:22:40.188Z,37.40
2018-07-26T09:23:13.979Z,37.30
2018-07-26T09:23:47.802Z,37.40
2018-07-26T09:24:20.889Z,37.40
2018-07-26T09:24:53.888Z,37.40
2018-07-26T09:25:26.957Z,37.40
2018-07-26T09:26:00.016Z,37.40
2018-07-26T09:26:33.812Z,37.40
2018-07-26T09:27:06.854Z,37.40
2018-07-26T09:27:39.899Z,37.40
2018-07-26T09:28:12.919Z,37.50
2018-07-26T09:28:45.978Z,37.50
2018-07-26T09:29:19.793Z,37.60
2018-07-26T09:29:52.843Z,37.60
2018-07-26T09:30:25.880Z,37.60
2018-07-26T09:30:58.916Z,37.60
2018-07-26T09:31:32.032Z,37.50
2018-07-26T09:32:05.076Z,37.50
2018-07-26T09:32:38.110Z,37.40
2018-07-26T09:33:11.939Z,37.30
2018-07-26T09:33:44.957Z,37.30
2018-07-26T09:34:18.020Z,37.40
2018-07-26T09:34:51.084Z,37.40
2018-07-26T09:35:24.144Z,37.40
2018-07-26T09:35:57.180Z,37.50
2018-07-26T09:36:30.984Z,37.40
2018-07-26T09:37:04.034Z,37.40
2018-07-26T09:37:37.058Z,37.50
2018-07-26T09:38:10.112Z,37.50
2018-07-26T09:38:43.951Z,37.50
2018-07-26T09:39:17.003Z,37.50
2018-07-26T09:39:50.032Z,37.50
2018-07-26T09:40:23.827Z,37.50
2018-07-26T09:40:57.668Z,37.50
2018-07-26T09:41:30.693Z,37.60
2018-07-26T09:42:04.489Z,37.60
2018-07-26T09:42:38.295Z,37.70
2018-07-26T09:43:11.355Z,37.60
2018-07-26T09:43:45.155Z,37.90
2018-07-26T09:44:18.994Z,37.90
2018-07-26T09:44:52.030Z,37.90
2018-07-26T09:45:25.074Z,37.90
2018-07-26T09:45:58.104Z,38.00
2018-07-26T09:46:31.129Z,37.90
2018-07-26T09:47:04.945Z,38.00
2018-07-26T09:47:38.007Z,37.90
2018-07-26T09:48:11.794Z,38.20
2018-07-26T09:48:45.611Z,38.10
2018-07-26T09:49:18.686Z,38.10
2018-07-26T09:49:51.764Z,38.20
2018-07-26T09:50:25.544Z,38.30
2018-07-26T09:50:58.590Z,38.30
2018-07-26T09:51:31.627Z,38.30
2018-07-26T09:52:04.677Z,38.40
2018-07-26T09:52:37.712Z,38.40
2018-07-26T09:53:10.773Z,38.30
2018-07-26T09:53:43.815Z,38.30
2018-07-26T09:54:16.900Z,38.50
2018-07-26T09:54:50.008Z,38.40
2018-07-26T09:55:23.044Z,38.30
2018-07-26T09:55:56.096Z,38.30
2018-07-26T09:56:29.162Z,38.30
2018-07-26T09:57:02.976Z,38.30
2018-07-26T09:57:36.009Z,38.30
2018-07-26T09:58:09.047Z,38.30
2018-07-26T09:58:42.087Z,38.30
2018-07-26T09:59:15.914Z,38.30
2018-07-26T09:59:48.950Z,38.30
2018-07-26T10:00:22.773Z,38.30
2018-07-26T10:00:55.798Z,38.40
2018-07-26T10:01:28.836Z,38.40
2018-07-26T10:02:01.857Z,38.40
2018-07-26T10:02:35.663Z,38.40
2018-07-26T10:03:08.708Z,38.40
2018-07-26T10:03:41.747Z,38.50
2018-07-26T10:04:14.820Z,38.50
2018-07-26T10:04:47.856Z,38.60
2018-07-26T10:05:21.661Z,38.70
2018-07-26T10:05:54.707Z,38.60
2018-07-26T10:06:28.540Z,38.60
2018-07-26T10:07:01.605Z,38.60
2018-07-26T10:07:34.167Z,38.60
2018-07-26T10:08:06.756Z,38.60
2018-07-26T10:08:39.704Z,38.70
2018-07-26T10:09:12.337Z,38.70
2018-07-26T10:09:46.058Z,38.60
2018-07-26T10:10:19.878Z,38.70
2018-07-26T10:10:52.920Z,38.70
2018-07-26T10:11:25.961Z,38.50
2018-07-26T10:11:58.996Z,38.50
2018-07-26T10:12:32.030Z,38.50
2018-07-26T10:13:05.827Z,38.50
2018-07-26T10:13:39.619Z,38.50
2018-07-26T10:14:13.453Z,38.60
2018-07-26T10:14:46.489Z,38.60
2018-07-26T10:15:20.292Z,38.60
2018-07-26T10:15:53.386Z,38.60
2018-07-26T10:16:26.376Z,38.60
2018-07-26T10:16:59.420Z,38.70
2018-07-26T10:17:33.223Z,38.70
2018-07-26T10:18:06.313Z,38.70
2018-07-26T10:18:39.347Z,38.60
2018-07-26T10:19:13.158Z,38.60
2018-07-26T10:19:46.207Z,38.50
2018-07-26T10:20:19.316Z,38.60
2018-07-26T10:20:52.284Z,38.60
2018-07-26T10:21:25.321Z,38.70
2018-07-26T10:21:58.365Z,38.80
2018-07-26T10:22:31.404Z,38.90
2018-07-26T10:23:04.448Z,38.90
2018-07-26T10:23:38.256Z,38.90
2018-07-26T10:24:12.063Z,39.00
2018-07-26T10:24:44.659Z,39.00
2018-07-26T10:25:17.625Z,39.10
2018-07-26T10:25:50.673Z,39.10
2018-07-26T10:26:23.701Z,39.10
2018-07-26T10:26:56.735Z,39.10
2018-07-26T10:27:29.775Z,39.10
2018-07-26T10:28:03.571Z,39.10
2018-07-26T10:28:37.389Z,39.10
2018-07-26T10:29:10.419Z,39.10
2018-07-26T10:29:43.486Z,39.10
2018-07-26T10:30:16.511Z,39.10
2018-07-26T10:30:49.545Z,39.10
2018-07-26T10:31:22.584Z,39.10
2018-07-26T10:31:55.657Z,39.20
2018-07-26T10:32:28.687Z,39.20
2018-07-26T10:33:02.507Z,39.40
2018-07-26T10:33:35.549Z,39.40
2018-07-26T10:34:08.589Z,39.40
2018-07-26T10:34:41.641Z,39.30
2018-07-26T10:35:14.703Z,39.30
2018-07-26T10:35:48.496Z,39.40
2018-07-26T10:36:21.530Z,39.40
2018-07-26T10:36:54.586Z,39.40
2018-07-26T10:37:27.650Z,39.10
2018-07-26T10:38:00.682Z,39.10
2018-07-26T10:38:34.496Z,39.10
2018-07-26T10:39:07.546Z,39.10
2018-07-26T10:39:41.343Z,39.10
2018-07-26T10:40:14.439Z,39.20
2018-07-26T10:40:47.411Z,39.20
2018-07-26T10:41:20.460Z,39.30
2018-07-26T10:41:54.246Z,39.30
2018-07-26T10:42:28.057Z,39.30
2018-07-26T10:43:01.116Z,39.30
2018-07-26T10:43:34.921Z,39.40
2018-07-26T10:44:08.727Z,39.40
2018-07-26T10:44:41.832Z,39.40
2018-07-26T10:45:14.871Z,39.50
2018-07-26T10:45:47.900Z,39.50
2018-07-26T10:46:20.977Z,39.60
2018-07-26T10:46:54.024Z,39.70
2018-07-26T10:47:27.078Z,39.70
2018-07-26T10:48:00.119Z,39.60
2018-07-26T10:48:33.917Z,39.50
2018-07-26T10:49:07.733Z,39.60
2018-07-26T10:49:40.811Z,39.60
2018-07-26T10:50:13.928Z,39.60
2018-07-26T10:50:46.966Z,39.60
2018-07-26T10:51:20.009Z,39.70
2018-07-26T10:51:53.825Z,39.70
2018-07-26T10:52:26.862Z,39.70
2018-07-26T10:52:59.898Z,39.80
2018-07-26T10:53:32.955Z,39.80
2018-07-26T10:54:05.971Z,39.70
2018-07-26T10:54:39.027Z,39.80
2018-07-26T10:55:12.073Z,39.90
2018-07-26T10:55:45.128Z,39.90
2018-07-26T10:56:19.003Z,40.10
2018-07-26T10:56:52.049Z,40.10
2018-07-26T10:57:25.072Z,40.10
2018-07-26T10:57:58.899Z,40.10
2018-07-26T10:58:31.956Z,40.10
2018-07-26T10:59:04.998Z,40.10
2018-07-26T10:59:38.058Z,40.10
2018-07-26T11:00:11.109Z,40.10
2018-07-26T11:00:44.157Z,40.10
2018-07-26T11:01:17.945Z,40.00
2018-07-26T11:01:50.980Z,40.00
2018-07-26T11:02:24.032Z,40.10
2018-07-26T11:02:57.064Z,40.10
2018-07-26T11:03:30.208Z,40.10
2018-07-26T11:04:03.272Z,40.10
2018-07-26T11:04:36.321Z,40.10
2018-07-26T11:05:09.361Z,40.10
2018-07-26T11:05:43.149Z,40.20
2018-07-26T11:06:16.956Z,40.30
2018-07-26T11:06:49.995Z,40.30
2018-07-26T11:07:23.054Z,40.40
2018-07-26T11:07:56.119Z,40.40
2018-07-26T11:08:29.148Z,40.40
2018-07-26T11:09:02.981Z,40.30
2018-07-26T11:09:36.054Z,40.30
2018-07-26T11:10:09.109Z,40.20
2018-07-26T11:10:42.160Z,40.20
2018-07-26T11:11:15.980Z,40.20
2018-07-26T11:11:49.016Z,40.20
2018-07-26T11:12:22.052Z,40.20
2018-07-26T11:12:55.103Z,40.10
2018-07-26T11:13:28.143Z,40.10
2018-07-26T11:14:01.181Z,40.20
2018-07-26T11:14:34.234Z,40.30
2018-07-26T11:15:07.303Z,40.30
2018-07-26T11:15:40.342Z,40.30
2018-07-26T11:16:13.395Z,40.40
2018-07-26T11:16:46.426Z,40.50
2018-07-26T11:17:19.459Z,40.60
2018-07-26T11:17:52.498Z,40.60
2018-07-26T11:18:25.557Z,40.60
2018-07-26T11:18:58.671Z,40.60
2018-07-26T11:19:32.429Z,40.60
2018-07-26T11:20:05.477Z,40.60
2018-07-26T11:20:39.296Z,40.60
2018-07-26T11:21:12.331Z,40.60
2018-07-26T11:21:46.120Z,40.60
2018-07-26T11:22:19.940Z,40.50
2018-07-26T11:22:52.981Z,40.50
2018-07-26T11:23:26.048Z,40.30
2018-07-26T11:23:59.091Z,40.30